Almira, Washington
Current Conditions -  °F | °C
As of 11:53 PM on Thursday 23 Oct 2014 (Local Time) from KEPH Reporting Station
Clear Clear  
Wind Chill: 39°   Ceiling: Unl
Heat Index: 43°   Visibility: 10mi
Dew Point: 36°   Wind: 6mph
Humidity: 76%   Direction: 200°SSW
Pressure: 29.98"   Gusts: NA
Location:  47.71°N, 118.94°W
Report Text: KEPH 240653Z AUTO 20005KT 10SM CLR 06/02 A2998 RMK AO2 SLP155 T00610022
Loading
Personal Weather Stations






























Interactive Weather Map New forecast layout! Learn more

10-Day Weather Forecast

Advertisements
Track Severe Weather on mobile